Terminal Aerodrome Forecast
Issued by NWS

Home | Current Version | Previous Version | Text Only | Print | Product List | Glossary On
Versions: 1 2 3 4 5 6 7 8 9 10 11 12 13 14 15 16 17 18 19 20 21 22
000
FTUS44 KOUN 291722
TAFGAG
TAF
KGAG 291722Z 2918/3018 06016G21KT P6SM SCT080
      TEMPO 3001/3005 3SM -TSRA BKN040CB
     FM300500 04007KT P6SM BKN100 OVC250
      TEMPO 3005/3009 4SM -TSRA BKN050CB
     FM300900 03005KT P6SM SCT050 OVC100 PROB30 3009/3014 4SM -TSRA
      BKN030CB OVC080=

USA.gov is the U.S. government's official web portal to all federal, state and local government web resources and services.